Time;durP1;ratioP1;P1;durP2;ratioP2;P2;SDS_P1;SDS_P2;PMS_P1;PMS_P2;Temp;Humidity;BMP_temperature;BMP_pressure;BME280_temperature;BME280_humidity;BME280_pressure;Samples;Min_cycle;Max_cycle;Signal;HPM_P1;HPM_P2
2023/05/29 00:06:08;;;;;;;7.90;4.80;;;;;;;15.95;100.00;100266.14;102346;1293;600719;-59
2023/05/29 00:08:36;;;;;;;8.90;4.60;;;;;;;15.90;100.00;100269.71;104550;1267;59580;-58
2023/05/29 00:11:04;;;;;;;8.90;4.40;;;;;;;15.86;100.00;100273.23;104948;1267;60450;-59
2023/05/29 00:13:32;;;;;;;6.30;4.20;;;;;;;15.82;100.00;100275.08;105211;1263;73137;-58
2023/05/29 00:16:00;;;;;;;6.70;4.10;;;;;;;15.81;100.00;100283.59;105332;1264;66293;-59
2023/05/29 00:18:28;;;;;;;6.20;3.80;;;;;;;15.78;100.00;100290.02;105355;1260;72594;-62
2023/05/29 00:20:56;;;;;;;7.70;3.80;;;;;;;15.75;100.00;100291.65;105147;1259;191402;-58
2023/05/29 00:23:24;;;;;;;7.80;4.10;;;;;;;15.72;100.00;100289.29;105333;1256;59312;-58
2023/05/29 00:25:52;;;;;;;6.40;3.20;;;;;;;15.69;100.00;100283.05;105608;1257;72260;-59
2023/05/29 00:28:20;;;;;;;5.60;3.60;;;;;;;15.65;100.00;100279.15;105660;1257;65174;-63
2023/05/29 00:30:48;;;;;;;9.70;4.20;;;;;;;15.64;100.00;100277.44;105774;1252;72160;-58
2023/05/29 00:33:17;;;;;;;4.30;3.10;;;;;;;15.62;100.00;100277.62;105626;1254;60561;-58
2023/05/29 00:35:45;;;;;;;7.40;3.60;;;;;;;15.62;100.00;100272.37;105745;1251;60102;-62
2023/05/29 00:38:13;;;;;;;9.20;3.70;;;;;;;15.62;100.00;100276.09;105856;1256;73587;-62
2023/05/29 00:40:41;;;;;;;5.90;3.50;;;;;;;15.62;100.00;100278.88;105634;1251;66354;-58
2023/05/29 00:43:09;;;;;;;7.30;3.30;;;;;;;15.61;100.00;100280.14;105714;1254;72691;-58
2023/05/29 00:45:36;;;;;;;9.90;3.60;;;;;;;15.59;100.00;100277.20;105904;1253;62192;-58
2023/05/29 00:48:05;;;;;;;5.60;3.00;;;;;;;15.59;100.00;100276.88;105987;1256;59636;-61
2023/05/29 00:50:33;;;;;;;4.90;3.30;;;;;;;15.58;100.00;100274.42;105877;1256;73159;-60
2023/05/29 00:53:01;;;;;;;4.60;2.80;;;;;;;15.56;100.00;100274.27;105896;1257;67487;-58
2023/05/29 00:55:29;;;;;;;4.40;2.90;;;;;;;15.55;100.00;100273.55;105916;1257;72822;-60
2023/05/29 00:57:57;;;;;;;6.50;3.00;;;;;;;15.54;100.00;100272.85;106102;1256;60441;-63
2023/05/29 01:00:25;;;;;;;6.90;3.40;;;;;;;15.53;100.00;100276.08;105482;1251;60055;-58
2023/05/29 01:02:53;;;;;;;7.10;3.40;;;;;;;15.52;100.00;100276.49;105811;1251;72857;-58
2023/05/29 01:05:21;;;;;;;6.40;2.80;;;;;;;15.51;100.00;100274.00;105976;1258;66929;-58
2023/05/29 01:07:50;;;;;;;7.10;3.70;;;;;;;15.49;100.00;100275.14;105793;1257;72754;-58
2023/05/29 01:10:18;;;;;;;6.50;3.10;;;;;;;15.47;100.00;100274.89;105604;1253;61871;-58
2023/05/29 01:13:07;;;;;;;5.60;3.30;;;;;;;15.45;100.00;100268.87;105860;1254;60070;-58
2023/05/29 01:15:35;;;;;;;5.80;3.20;;;;;;;15.42;100.00;100269.46;105596;1259;73140;-60
2023/05/29 01:18:26;;;;;;;5.80;3.10;;;;;;;15.40;100.00;100265.39;105842;1254;68118;-59
2023/05/29 01:21:36;;;;;;;6.90;3.20;;;;;;;15.39;100.00;100265.33;105711;1254;72797;-58
2023/05/29 01:24:35;;;;;;;9.90;3.30;;;;;;;15.38;100.00;100265.52;105434;1257;60138;-58
2023/05/29 01:34:37;;;;;;;4.70;2.60;;;;;;;15.30;100.00;100273.48;105651;1254;67084;-58
2023/05/29 01:37:05;;;;;;;5.00;3.20;;;;;;;15.28;100.00;100274.34;105777;1256;71406;-58
2023/05/29 01:39:33;;;;;;;8.50;3.50;;;;;;;15.27;100.00;100270.50;105683;1254;60531;-58
2023/05/29 01:42:01;;;;;;;4.60;2.80;;;;;;;15.25;100.00;100271.55;105591;1258;60426;-62
2023/05/29 01:44:28;;;;;;;6.90;2.70;;;;;;;15.25;100.00;100271.70;105467;1259;72269;-58
2023/05/29 01:46:56;;;;;;;5.70;2.70;;;;;;;15.23;100.00;100272.83;105626;1258;67273;-58
2023/05/29 01:49:25;;;;;;;6.50;3.30;;;;;;;15.22;100.00;100279.79;106293;1254;71717;-58
2023/05/29 01:51:52;;;;;;;6.70;2.60;;;;;;;15.21;100.00;100276.72;105751;1254;60441;-59
2023/05/29 01:54:20;;;;;;;3.90;2.20;;;;;;;15.21;100.00;100275.19;105749;1256;60194;-62
2023/05/29 02:04:33;;;;;;;4.90;2.50;;;;;;;15.23;100.00;100282.27;102353;1295;601825;-58
2023/05/29 02:07:01;;;;;;;4.40;2.30;;;;;;;15.21;100.00;100288.69;105302;1262;60569;-57
2023/05/29 02:09:30;;;;;;;6.70;2.20;;;;;;;15.17;100.00;100291.02;105511;1263;59819;-61
2023/05/29 02:11:58;;;;;;;5.50;2.70;;;;;;;15.11;100.00;100288.88;105348;1258;71088;-58
2023/05/29 02:14:26;;;;;;;5.60;2.60;;;;;;;15.06;100.00;100290.23;105381;1263;67560;-57
2023/05/29 02:16:54;;;;;;;4.50;2.10;;;;;;;14.99;100.00;100290.67;105265;1263;71422;-58
2023/05/29 02:19:25;;;;;;;4.40;2.40;;;;;;;14.92;100.00;100290.89;105383;1258;190306;-60
2023/05/29 02:21:53;;;;;;;7.20;2.80;;;;;;;14.88;100.00;100288.44;105955;1254;59996;-57
2023/05/29 02:24:21;;;;;;;5.90;2.40;;;;;;;14.86;100.00;100292.81;105586;1254;71092;-58
2023/05/29 02:26:50;;;;;;;5.90;2.20;;;;;;;14.86;100.00;100291.88;105720;1260;67061;-63
2023/05/29 02:29:18;;;;;;;5.40;2.50;;;;;;;14.85;100.00;100297.78;105719;1257;71282;-61
2023/05/29 02:31:46;;;;;;;5.30;2.50;;;;;;;14.81;100.00;100295.34;105257;1261;59677;-58
2023/05/29 02:34:13;;;;;;;4.30;2.20;;;;;;;14.75;100.00;100298.59;105679;1254;60035;-59
2023/05/29 02:36:42;;;;;;;6.10;2.80;;;;;;;14.69;100.00;100301.48;105736;1260;71607;-59
2023/05/29 02:39:10;;;;;;;5.60;2.50;;;;;;;14.64;100.00;100302.09;105811;1256;65795;-62
2023/05/29 02:41:38;;;;;;;7.50;3.10;;;;;;;14.63;100.00;100302.45;105438;1254;73230;-58
2023/05/29 02:44:06;;;;;;;6.40;2.60;;;;;;;14.65;100.00;100302.72;105483;1261;60439;-57
2023/05/29 02:46:33;;;;;;;6.30;2.40;;;;;;;14.63;100.00;100302.68;105561;1259;59994;-59
2023/05/29 02:49:01;;;;;;;4.60;2.50;;;;;;;14.60;100.00;100308.59;105810;1254;72842;-59
2023/05/29 02:51:32;;;;;;;6.50;2.40;;;;;;;14.53;100.00;100311.92;105637;1260;67432;-58
2023/05/29 02:53:59;;;;;;;4.20;2.20;;;;;;;14.46;100.00;100314.15;105526;1254;73054;-58
2023/05/29 02:56:28;;;;;;;8.00;3.10;;;;;;;14.41;100.00;100320.00;105412;1259;60469;-59
2023/05/29 02:58:55;;;;;;;5.60;2.30;;;;;;;14.41;100.00;100318.68;105568;1260;61029;-58
2023/05/29 03:01:23;;;;;;;6.40;2.30;;;;;;;14.44;100.00;100315.83;105355;1254;72631;-58
2023/05/29 03:03:51;;;;;;;6.20;2.70;;;;;;;14.50;100.00;100320.88;105614;1254;65686;-58
2023/05/29 03:06:20;;;;;;;7.00;2.10;;;;;;;14.68;100.00;100321.43;105528;1254;71000;-63
2023/05/29 03:08:49;;;;;;;5.90;2.60;;;;;;;15.03;100.00;100317.49;105699;1257;60251;-58
2023/05/29 03:11:17;;;;;;;6.70;2.20;;;;;;;15.39;100.00;100311.30;105459;1260;59615;-58
2023/05/29 03:13:46;;;;;;;7.90;2.10;;;;;;;15.66;100.00;100308.81;105564;1260;73005;-59
2023/05/29 03:16:14;;;;;;;5.40;2.10;;;;;;;16.12;100.00;100308.73;105481;1254;67585;-58
2023/05/29 03:18:43;;;;;;;5.30;1.90;;;;;;;16.83;100.00;100305.37;105424;1259;71676;-57
2023/05/29 03:21:12;;;;;;;4.20;2.30;;;;;;;17.53;100.00;100299.46;105602;1260;60358;-59
2023/05/29 03:23:40;;;;;;;7.40;2.00;;;;;;;18.19;100.00;100295.75;105207;1254;60037;-59
2023/05/29 03:26:08;;;;;;;4.00;2.30;;;;;;;18.80;100.00;100285.23;105435;1254;73116;-59
2023/05/29 03:28:36;;;;;;;6.60;1.90;;;;;;;19.14;100.00;100271.79;105427;1261;66908;-59
2023/05/29 03:31:05;;;;;;;6.50;2.10;;;;;;;19.05;100.00;100265.83;105632;1257;71823;-63
2023/05/29 03:33:33;;;;;;;5.70;2.40;;;;;;;18.63;100.00;100264.48;105293;1258;60100;-60
2023/05/29 03:36:16;;;;;;;7.60;2.10;;;;;;;18.12;100.00;100267.79;105693;1260;59708;-60
2023/05/29 03:38:44;;;;;;;5.90;2.30;;;;;;;17.64;100.00;100267.46;105772;1255;73037;-63
2023/05/29 03:41:12;;;;;;;5.30;2.30;;;;;;;17.22;100.00;100269.95;105416;1260;66894;-59
2023/05/29 03:43:40;;;;;;;7.30;2.50;;;;;;;16.91;100.00;100270.23;105466;1254;72661;-58
2023/05/29 03:46:08;;;;;;;6.90;2.00;;;;;;;16.67;100.00;100276.73;105759;1254;60211;-62
2023/05/29 03:48:36;;;;;;;3.60;2.00;;;;;;;16.46;100.00;100279.10;105308;1254;59767;-58
2023/05/29 03:51:05;;;;;;;7.40;2.70;;;;;;;16.26;100.00;100282.16;105243;1254;73702;-58
2023/05/29 03:53:35;;;;;;;5.70;2.10;;;;;;;16.09;100.00;100285.26;105406;1254;66884;-61
2023/05/29 03:56:03;;;;;;;5.30;2.30;;;;;;;15.95;100.00;100285.27;105557;1254;72646;-60
2023/05/29 03:58:32;;;;;;;7.10;2.20;;;;;;;15.85;100.00;100290.75;105819;1260;61557;-63
2023/05/29 04:01:00;;;;;;;7.20;2.20;;;;;;;15.76;100.00;100294.74;105526;1260;59490;-60
2023/05/29 04:03:29;;;;;;;5.70;2.10;;;;;;;15.71;100.00;100295.16;105831;1251;71415;-59
2023/05/29 04:05:58;;;;;;;4.90;1.70;;;;;;;15.69;100.00;100298.02;105683;1251;66923;-57
2023/05/29 04:08:26;;;;;;;3.90;1.90;;;;;;;15.68;100.00;100294.42;105566;1258;71422;-60
2023/05/29 04:10:53;;;;;;;7.30;2.30;;;;;;;15.69;100.00;100295.55;105573;1252;60482;-59
2023/05/29 04:13:22;;;;;;;6.60;2.90;;;;;;;15.71;100.00;100292.29;105790;1260;59691;-60
2023/05/29 04:15:53;;;;;;;5.80;1.90;;;;;;;15.75;100.00;100289.50;105916;1257;73051;-58
2023/05/29 04:18:21;;;;;;;5.80;2.50;;;;;;;15.81;100.00;100287.64;105724;1260;65512;-62
2023/05/29 04:20:49;;;;;;;5.70;1.90;;;;;;;15.88;100.00;100294.16;105609;1254;72718;-59
2023/05/29 04:23:17;;;;;;;4.30;1.80;;;;;;;15.94;100.00;100295.24;105736;1254;60071;-59
2023/05/29 04:25:45;;;;;;;8.30;2.50;;;;;;;16.00;100.00;100294.98;105510;1251;59650;-59
2023/05/29 04:28:17;;;;;;;4.80;1.80;;;;;;;16.04;100.00;100293.23;105775;1259;73105;-59
2023/05/29 04:30:45;;;;;;;3.90;2.20;;;;;;;16.08;100.00;100293.60;106025;1257;66901;-60
2023/05/29 04:33:14;;;;;;;3.50;2.10;;;;;;;16.13;100.00;100289.42;105512;1251;72852;-60
2023/05/29 04:35:48;;;;;;;4.60;2.40;;;;;;;16.19;100.00;100287.13;105660;1259;59710;-59
2023/05/29 04:38:17;;;;;;;7.40;2.20;;;;;;;16.27;100.00;100287.89;105992;1257;59528;-58
2023/05/29 04:40:44;;;;;;;6.30;2.00;;;;;;;16.37;100.00;100286.56;105716;1257;71810;-59
2023/05/29 04:43:15;;;;;;;7.80;2.10;;;;;;;16.49;100.00;100287.28;105742;1254;65698;-58
2023/05/29 04:46:03;;;;;;;4.80;2.00;;;;;;;16.64;100.00;100284.70;105948;1254;71480;-59
2023/05/29 04:48:33;;;;;;;4.80;1.90;;;;;;;16.75;100.00;100283.86;105704;1254;59791;-59
2023/05/29 04:51:02;;;;;;;4.70;2.00;;;;;;;16.84;100.00;100281.77;105793;1252;59500;-58
2023/05/29 04:53:31;;;;;;;4.60;2.00;;;;;;;16.90;100.00;100287.06;105806;1254;71916;-58
2023/05/29 04:55:58;;;;;;;5.60;2.00;;;;;;;16.94;100.00;100280.78;105853;1257;66901;-58
2023/05/29 04:58:26;;;;;;;5.90;2.40;;;;;;;16.95;100.00;100282.59;105768;1256;72794;-61
2023/05/29 05:00:57;;;;;;;6.90;2.30;;;;;;;16.98;100.00;100283.88;105570;1254;61692;-58
2023/05/29 05:03:33;;;;;;;7.10;2.10;;;;;;;17.02;100.00;100287.05;105848;1252;60036;-58
2023/05/29 05:06:06;;;;;;;4.70;2.50;;;;;;;17.05;100.00;100291.92;105598;1254;73101;-59
2023/05/29 05:08:34;;;;;;;9.50;2.40;;;;;;;17.08;100.00;100284.46;105739;1258;67807;-58
2023/05/29 05:11:02;;;;;;;5.00;2.00;;;;;;;17.12;100.00;100287.61;105777;1256;71512;-58
2023/05/29 05:13:30;;;;;;;6.20;1.90;;;;;;;17.17;100.00;100283.06;105738;1252;61722;-57
2023/05/29 05:15:57;;;;;;;6.30;2.00;;;;;;;17.28;100.00;100281.05;105750;1259;59282;-58
2023/05/29 05:18:25;;;;;;;3.90;2.20;;;;;;;17.41;100.00;100282.79;105916;1256;70949;-59
2023/05/29 05:21:03;;;;;;;6.80;2.30;;;;;;;17.52;100.00;100286.91;105467;1251;66895;-57
2023/05/29 05:23:32;;;;;;;6.60;2.10;;;;;;;17.60;100.00;100289.20;105548;1251;72663;-58
2023/05/29 05:26:15;;;;;;;6.80;2.20;;;;;;;17.67;100.00;100286.37;105894;1252;60273;-58
2023/05/29 05:28:43;;;;;;;10.40;2.60;;;;;;;17.75;100.00;100293.15;105805;1251;60423;-57
2023/05/29 05:31:11;;;;;;;6.00;2.10;;;;;;;17.82;100.00;100294.88;105860;1252;73085;-57
2023/05/29 05:33:39;;;;;;;7.20;2.40;;;;;;;17.86;100.00;100293.02;105815;1257;67629;-56
2023/05/29 05:36:07;;;;;;;4.30;2.20;;;;;;;17.91;100.00;100294.26;105589;1251;73132;-57
2023/05/29 05:38:37;;;;;;;3.40;1.70;;;;;;;17.98;100.00;100298.52;105859;1251;60088;-57
2023/05/29 05:41:05;;;;;;;5.80;2.40;;;;;;;17.98;100.00;100294.23;105876;1251;60623;-57
2023/05/29 05:43:33;;;;;;;4.80;2.50;;;;;;;17.98;100.00;100299.25;105767;1256;73061;-57
2023/05/29 05:46:10;;;;;;;8.70;2.30;;;;;;;18.02;100.00;100298.66;105734;1257;66436;-58
2023/05/29 05:48:40;;;;;;;11.10;2.70;;;;;;;18.06;100.00;100294.92;105859;1254;72670;-58
2023/05/29 05:51:08;;;;;;;5.40;2.60;;;;;;;18.11;100.00;100296.27;105811;1260;60021;-57
2023/05/29 05:53:37;;;;;;;6.20;2.30;;;;;;;18.17;100.00;100296.60;105856;1251;60044;-59
2023/05/29 05:56:05;;;;;;;6.10;2.80;;;;;;;18.24;100.00;100295.64;105925;1257;73210;-57
2023/05/29 05:58:34;;;;;;;5.60;2.50;;;;;;;18.34;100.00;100297.85;105624;1251;67072;-56
2023/05/29 06:01:02;;;;;;;3.50;2.10;;;;;;;18.46;100.00;100298.30;105707;1257;71445;-56
2023/05/29 06:03:32;;;;;;;5.10;2.40;;;;;;;18.57;100.00;100299.78;106490;1253;60135;-59
2023/05/29 06:06:05;;;;;;;7.30;2.60;;;;;;;18.68;100.00;100302.43;105744;1254;59695;-58
2023/05/29 06:08:32;;;;;;;5.40;2.40;;;;;;;18.83;100.00;100304.27;105686;1254;73117;-56
2023/05/29 06:11:01;;;;;;;7.60;2.70;;;;;;;19.03;100.00;100292.90;105877;1256;66875;-56
2023/05/29 06:13:29;;;;;;;4.30;2.50;;;;;;;19.28;100.00;100293.10;106150;1256;72713;-60
2023/05/29 06:16:03;;;;;;;5.30;2.60;;;;;;;19.56;100.00;100295.25;105600;1251;60524;-59
2023/05/29 06:18:30;;;;;;;6.10;2.60;;;;;;;19.91;100.00;100300.77;105659;1257;60444;-57
2023/05/29 06:21:00;;;;;;;5.70;2.60;;;;;;;20.30;100.00;100294.86;105773;1253;73888;-56
2023/05/29 06:23:28;;;;;;;5.20;2.70;;;;;;;20.85;100.00;100296.94;105748;1251;67704;-56
2023/05/29 06:25:56;;;;;;;3.60;2.20;;;;;;;21.65;100.00;100292.00;105367;1251;72501;-56
2023/05/29 06:28:24;;;;;;;6.00;2.60;;;;;;;22.61;100.00;100290.30;105700;1259;60408;-58
2023/05/29 06:30:52;;;;;;;4.50;2.40;;;;;;;23.51;100.00;100288.28;105670;1258;60405;-58
2023/05/29 06:33:21;;;;;;;7.30;3.90;;;;;;;24.10;100.00;100284.02;105746;1251;74537;-57
2023/05/29 06:35:49;;;;;;;3.30;2.30;;;;;;;24.67;100.00;100281.31;105756;1257;67578;-57
2023/05/29 06:38:17;;;;;;;4.90;2.40;;;;;;;25.39;100.00;100285.08;109355;1251;72668;-60
2023/05/29 06:40:45;;;;;;;5.40;2.80;;;;;;;25.85;100.00;100285.98;109209;1251;60366;-57
2023/05/29 06:43:12;;;;;;;6.00;2.50;;;;;;;26.05;100.00;100288.71;109368;1251;60059;-57
2023/05/29 06:45:46;;;;;;;3.50;2.30;;;;;;;25.89;100.00;100291.02;109355;1252;72627;-57
2023/05/29 06:48:13;;;;;;;4.60;2.20;;;;;;;25.30;100.00;100289.63;109348;1251;65799;-58
2023/05/29 06:50:41;;;;;;;4.10;2.20;;;;;;;24.64;100.00;100288.96;109233;1251;72156;-57
2023/05/29 06:53:27;;;;;;;5.70;2.30;;;;;;;24.10;100.00;100290.08;109352;1251;60140;-57
2023/05/29 06:55:56;;;;;;;4.70;3.00;;;;;;;23.81;100.00;100289.27;109357;1251;60553;-60
2023/05/29 06:58:24;;;;;;;4.60;2.80;;;;;;;23.65;100.00;100291.41;109379;1251;73872;-57
2023/05/29 07:04:22;;;;;;;5.00;3.00;;;;;;;23.38;100.00;100285.15;109143;1251;72732;-58
2023/05/29 07:06:50;;;;;;;4.10;2.70;;;;;;;23.31;100.00;100283.98;109229;1251;60292;-57
2023/05/29 07:09:17;;;;;;;6.10;2.50;;;;;;;23.28;100.00;100291.59;109400;1251;58862;-60
2023/05/29 07:11:46;;;;;;;4.20;2.90;;;;;;;23.40;100.00;100289.63;109355;1251;73858;-57
2023/05/29 07:14:14;;;;;;;4.30;3.00;;;;;;;23.83;100.00;100291.38;109275;1251;66224;-58
2023/05/29 07:16:41;;;;;;;4.70;3.50;;;;;;;24.52;100.00;100285.66;109368;1251;72682;-57
2023/05/29 07:19:11;;;;;;;5.40;3.80;;;;;;;25.25;100.00;100282.10;109213;1254;58841;-57
2023/05/29 07:21:48;;;;;;;6.80;3.60;;;;;;;25.97;100.00;100280.19;109210;1251;60443;-57
2023/05/29 07:24:17;;;;;;;12.10;5.60;;;;;;;26.51;100.00;100278.35;109363;1251;72733;-58
2023/05/29 07:26:45;;;;;;;9.70;5.90;;;;;;;26.89;100.00;100275.41;109393;1251;67392;-57
2023/05/29 07:29:13;;;;;;;5.50;2.70;;;;;;;27.25;100.00;100278.17;109244;1251;72699;-58
2023/05/29 07:31:42;;;;;;;5.20;3.10;;;;;;;27.38;100.00;100280.57;109198;1254;58819;-58
2023/05/29 07:34:10;;;;;;;5.50;3.20;;;;;;;27.43;100.00;100274.75;109362;1251;59558;-57
2023/05/29 07:37:15;;;;;;;5.00;3.10;;;;;;;27.49;100.00;100265.64;109228;1251;73194;-57
2023/05/29 07:39:43;;;;;;;4.90;3.00;;;;;;;27.52;100.00;100259.33;109077;1251;65963;-58
2023/05/29 07:42:34;;;;;;;5.40;2.80;;;;;;;27.55;100.00;100260.14;109074;1251;72696;-57
2023/05/29 07:45:03;;;;;;;6.30;3.40;;;;;;;27.59;100.00;100262.90;109341;1251;60103;-58
2023/05/29 07:47:30;;;;;;;8.60;4.50;;;;;;;27.66;100.00;100254.73;109274;1251;60034;-57
2023/05/29 07:49:58;;;;;;;7.30;4.00;;;;;;;27.95;99.45;100258.60;109330;1251;73652;-58
2023/05/29 07:52:27;;;;;;;4.20;2.80;;;;;;;27.94;98.54;100256.41;109376;1251;67887;-57
2023/05/29 07:54:55;;;;;;;6.90;3.40;;;;;;;27.68;98.14;100258.94;109208;1251;72706;-56
2023/05/29 07:57:23;;;;;;;4.60;3.00;;;;;;;27.57;100.00;100262.82;109292;1251;60113;-56
2023/05/29 07:59:53;;;;;;;5.30;2.90;;;;;;;27.83;99.76;100263.59;109316;1251;58972;-58
2023/05/29 08:02:22;;;;;;;7.20;3.00;;;;;;;27.88;98.92;100266.60;109198;1251;72558;-57
2023/05/29 08:05:08;;;;;;;5.70;3.20;;;;;;;27.81;100.00;100261.38;109261;1251;66933;-57
2023/05/29 08:07:36;;;;;;;4.90;2.90;;;;;;;27.81;100.00;100259.08;109209;1251;71873;-58
2023/05/29 08:10:05;;;;;;;4.70;2.90;;;;;;;27.72;100.00;100256.39;109207;1254;60132;-57
2023/05/29 08:12:34;;;;;;;4.50;3.40;;;;;;;27.52;100.00;100257.45;109335;1251;59259;-60
2023/05/29 08:15:03;;;;;;;5.80;3.40;;;;;;;27.38;100.00;100257.91;109334;1251;72705;-57
2023/05/29 08:17:30;;;;;;;5.20;3.00;;;;;;;27.29;100.00;100266.90;109373;1251;66917;-58
2023/05/29 08:19:58;;;;;;;4.20;3.10;;;;;;;27.37;100.00;100265.02;109403;1251;72674;-57
2023/05/29 08:22:29;;;;;;;4.90;2.90;;;;;;;27.56;100.00;100256.85;109393;1251;60130;-60
2023/05/29 08:24:57;;;;;;;4.10;2.70;;;;;;;27.80;100.00;100252.23;109381;1251;59413;-57
2023/05/29 08:27:25;;;;;;;4.80;2.80;;;;;;;28.00;99.99;100255.05;109358;1251;73800;-59
2023/05/29 08:29:54;;;;;;;6.60;3.00;;;;;;;28.07;100.00;100250.20;109341;1251;67869;-57
2023/05/29 08:32:22;;;;;;;4.90;2.60;;;;;;;28.09;100.00;100243.17;109345;1251;71875;-57
2023/05/29 08:34:49;;;;;;;5.20;3.30;;;;;;;28.18;99.51;100237.64;109353;1251;60136;-57
2023/05/29 08:37:17;;;;;;;6.30;3.60;;;;;;;28.14;100.00;100238.89;109400;1251;58790;-56
2023/05/29 08:39:45;;;;;;;5.90;3.30;;;;;;;28.21;99.60;100241.64;109328;1251;74328;-57
2023/05/29 08:42:15;;;;;;;8.50;3.10;;;;;;;28.22;96.07;100236.54;109392;1251;67011;-57
2023/05/29 08:44:42;;;;;;;7.60;3.30;;;;;;;28.16;98.97;100236.70;109355;1251;72709;-57
2023/05/29 08:47:11;;;;;;;4.20;3.00;;;;;;;28.17;99.29;100229.72;109220;1250;60110;-56
2023/05/29 08:49:42;;;;;;;5.60;2.90;;;;;;;28.34;99.36;100229.57;109417;1251;60042;-57
2023/05/29 08:52:17;;;;;;;4.50;3.10;;;;;;;28.40;99.06;100230.55;109384;1250;73915;-57
2023/05/29 08:54:44;;;;;;;3.70;2.80;;;;;;;28.29;98.30;100230.52;109325;1251;67466;-60
2023/05/29 08:57:12;;;;;;;6.60;3.10;;;;;;;28.36;99.94;100230.66;109373;1254;72021;-57
2023/05/29 08:59:43;;;;;;;5.10;2.80;;;;;;;28.49;97.63;100231.63;109363;1250;58892;-57
2023/05/29 09:02:14;;;;;;;5.00;3.00;;;;;;;28.50;99.63;100228.92;109415;1251;58788;-57
2023/05/29 09:04:44;;;;;;;5.00;3.20;;;;;;;28.65;98.99;100224.91;109412;1251;73858;-59
2023/05/29 09:07:12;;;;;;;6.50;3.60;;;;;;;28.77;92.88;100220.91;109372;1250;67357;-57
2023/05/29 09:09:40;;;;;;;5.10;3.00;;;;;;;28.82;97.99;100220.01;109333;1251;72705;-57
2023/05/29 09:12:09;;;;;;;5.20;3.10;;;;;;;29.02;96.63;100222.12;109402;1250;58842;-56
2023/05/29 09:14:44;;;;;;;5.70;3.20;;;;;;;28.99;88.80;100222.34;109253;1250;60201;-56
2023/05/29 09:17:12;;;;;;;4.30;2.30;;;;;;;28.74;94.55;100222.23;109374;1251;73894;-57
2023/05/29 09:19:40;;;;;;;5.70;3.40;;;;;;;28.61;93.02;100226.96;109384;1250;67503;-57
2023/05/29 09:22:15;;;;;;;5.90;3.60;;;;;;;28.52;96.98;100218.19;109413;1251;71415;-57
2023/05/29 09:24:47;;;;;;;4.80;2.80;;;;;;;28.63;100.00;100214.76;109419;1250;58821;-57
2023/05/29 09:27:14;;;;;;;6.40;2.90;;;;;;;28.76;96.06;100215.11;109453;1251;60087;-57
2023/05/29 09:33:24;;;;;;;7.40;3.00;;;;;;;28.32;92.82;100212.14;109455;1251;67033;-60
2023/05/29 09:35:52;;;;;;;4.90;2.90;;;;;;;28.18;91.25;100215.45;109442;1251;72374;-57
2023/05/29 09:38:20;;;;;;;5.70;2.70;;;;;;;27.79;96.13;100214.31;109376;1251;58930;-57
2023/05/29 09:40:50;;;;;;;5.60;3.00;;;;;;;27.35;99.96;100211.67;109390;1250;60096;-56
2023/05/29 09:43:19;;;;;;;5.60;3.50;;;;;;;27.13;100.00;100210.73;109461;1250;73816;-56
2023/05/29 09:45:47;;;;;;;6.50;3.00;;;;;;;27.22;100.00;100204.23;109410;1251;66965;-59
2023/05/29 09:48:22;;;;;;;7.70;3.90;;;;;;;27.32;100.00;100203.16;109413;1251;71401;-56
2023/05/29 09:50:49;;;;;;;3.90;3.20;;;;;;;27.21;100.00;100194.30;109408;1251;58819;-56
2023/05/29 09:53:28;;;;;;;7.80;3.30;;;;;;;27.14;100.00;100188.96;109379;1251;58785;-56
2023/05/29 09:55:57;;;;;;;6.30;3.30;;;;;;;27.29;100.00;100184.11;109413;1251;73135;-56
2023/05/29 09:58:25;;;;;;;5.30;3.20;;;;;;;27.70;100.00;100177.00;109367;1251;66837;-58
2023/05/29 10:00:53;;;;;;;7.00;3.20;;;;;;;28.29;100.00;100178.20;109385;1251;71433;-57
2023/05/29 10:03:23;;;;;;;4.90;3.00;;;;;;;28.52;99.09;100181.17;109362;1251;58749;-57
2023/05/29 10:05:52;;;;;;;;;;;;;;;28.55;98.04;100185.30;109375;1251;60093;-59
2023/05/29 10:08:20;;;;;;;5.50;3.10;;;;;;;28.57;100.00;100188.39;109333;1251;73857;-58
2023/05/29 10:10:52;;;;;;;6.10;2.90;;;;;;;28.59;99.67;100186.21;109412;1251;65661;-57
2023/05/29 10:13:21;;;;;;;7.70;3.60;;;;;;;28.69;92.55;100181.16;109423;1251;72704;-57
2023/05/29 10:15:50;;;;;;;4.60;3.10;;;;;;;28.67;96.09;100175.48;109364;1251;58868;-57
2023/05/29 10:18:26;;;;;;;4.80;3.40;;;;;;;28.60;92.35;100180.20;109292;1250;58928;-60
2023/05/29 10:20:58;;;;;;;4.60;3.00;;;;;;;28.36;91.69;100170.95;109325;1251;73939;-57
2023/05/29 10:23:26;;;;;;;5.70;3.80;;;;;;;28.14;95.30;100177.79;109321;1251;58674;-60
2023/05/29 10:26:05;;;;;;;5.90;3.40;;;;;;;27.96;96.08;100175.98;109368;1251;71523;-57
2023/05/29 10:28:32;;;;;;;6.30;3.60;;;;;;;27.94;97.82;100172.77;109430;1251;58839;-56
2023/05/29 10:31:08;;;;;;;5.20;3.00;;;;;;;27.87;97.90;100176.81;109394;1251;58825;-57
2023/05/29 10:34:25;;;;;;;4.30;3.00;;;;;;;27.72;99.95;100175.40;109411;1250;73844;-57
2023/05/29 10:37:22;;;;;;;5.00;3.00;;;;;;;27.69;98.91;100177.13;109010;1251;67753;-56
2023/05/29 10:39:50;;;;;;;5.40;3.70;;;;;;;27.53;95.69;100182.09;109360;1250;72688;-56
2023/05/29 10:42:46;;;;;;;4.80;3.30;;;;;;;27.20;95.84;100188.81;109311;1254;58875;-56
2023/05/29 10:45:32;;;;;;;5.50;3.30;;;;;;;26.80;100.00;100193.13;109414;1251;58984;-57
2023/05/29 10:48:06;;;;;;;7.10;3.40;;;;;;;26.59;100.00;100184.26;109499;1251;73960;-56
2023/05/29 10:50:41;;;;;;;7.50;3.40;;;;;;;26.40;100.00;100184.19;109399;1251;65699;-55
2023/05/29 10:53:12;;;;;;;5.10;3.10;;;;;;;26.25;100.00;100182.48;109378;1251;71840;-58
2023/05/29 10:55:40;;;;;;;4.10;3.00;;;;;;;26.13;100.00;100184.30;109358;1251;59551;-55
2023/05/29 10:58:28;;;;;;;5.60;3.10;;;;;;;25.97;100.00;100188.58;109458;1251;60059;-56
2023/05/29 11:00:57;;;;;;;7.50;3.10;;;;;;;25.82;100.00;100188.13;109413;1250;72611;-57
2023/05/29 11:03:26;;;;;;;5.30;3.40;;;;;;;25.70;100.00;100190.59;109361;1251;66940;-56
2023/05/29 11:06:07;;;;;;;5.10;3.10;;;;;;;25.63;100.00;100188.17;109349;1251;73130;-57
2023/05/29 11:08:35;;;;;;;;;;;;;;;25.58;100.00;100184.02;109410;1251;58789;-59
2023/05/29 11:11:03;;;;;;;8.30;3.40;;;;;;;25.51;100.00;100183.60;109353;1251;58811;-56
2023/05/29 11:13:33;;;;;;;4.50;3.30;;;;;;;25.43;100.00;100182.84;109391;1251;73919;-59
2023/05/29 11:16:20;;;;;;;5.30;3.60;;;;;;;25.45;100.00;100178.91;109407;1251;67983;-57
2023/05/29 11:18:48;;;;;;;4.80;3.10;;;;;;;25.53;100.00;100176.73;109254;1251;72740;-56
2023/05/29 11:21:38;;;;;;;6.40;3.20;;;;;;;25.61;100.00;100172.60;109325;1251;58821;-57
2023/05/29 11:24:06;;;;;;;4.60;2.90;;;;;;;25.70;100.00;100172.74;109363;1251;60169;-58
2023/05/29 11:26:37;;;;;;;5.80;3.20;;;;;;;25.80;100.00;100168.45;109394;1250;72604;-57
2023/05/29 11:29:10;;;;;;;6.80;3.20;;;;;;;25.75;100.00;100172.80;109398;1251;66873;-57
2023/05/29 11:31:39;;;;;;;5.10;3.20;;;;;;;25.67;100.00;100171.67;109443;1251;72714;-56
2023/05/29 11:34:09;;;;;;;6.10;3.40;;;;;;;25.69;100.00;100173.73;109362;1251;60125;-58
2023/05/29 11:36:37;;;;;;;5.10;3.00;;;;;;;25.77;100.00;100176.36;109427;1251;58827;-60
2023/05/29 11:39:05;;;;;;;6.50;3.20;;;;;;;25.79;100.00;100171.34;109396;1251;72655;-57
2023/05/29 11:41:33;;;;;;;5.10;3.60;;;;;;;25.70;100.00;100166.66;109407;1251;66888;-57
2023/05/29 11:44:02;;;;;;;6.20;2.80;;;;;;;25.66;100.00;100159.83;109336;1252;71145;-57
2023/05/29 11:46:34;;;;;;;4.50;3.10;;;;;;;25.61;100.00;100152.31;109287;1254;59177;-57
2023/05/29 11:49:01;;;;;;;6.40;3.00;;;;;;;25.60;100.00;100150.92;109374;1251;60533;-56
2023/05/29 11:51:30;;;;;;;4.80;2.70;;;;;;;25.77;100.00;100150.98;109397;1250;73875;-57
2023/05/29 11:53:59;;;;;;;4.00;2.80;;;;;;;26.04;100.00;100143.50;109375;1250;65654;-56